createdAt,value
2023-05-07T00:01:29.467Z,1.40
2023-05-07T00:03:56.350Z,1.40
2023-05-07T00:06:23.720Z,1.50
2023-05-07T00:08:50.490Z,1.67
2023-05-07T00:11:17.193Z,1.20
2023-05-07T00:13:43.926Z,1.60
2023-05-07T00:16:10.619Z,2.33
2023-05-07T00:18:37.453Z,1.57
2023-05-07T00:21:04.354Z,1.70
2023-05-07T00:23:31.096Z,1.37
2023-05-07T00:25:57.875Z,1.43
2023-05-07T00:28:24.623Z,1.53
2023-05-07T00:30:51.319Z,1.20
2023-05-07T00:33:18.132Z,1.73
2023-05-07T00:35:44.899Z,1.53
2023-05-07T00:38:11.676Z,1.57
2023-05-07T00:40:38.636Z,1.60
2023-05-07T00:43:05.375Z,1.50
2023-05-07T00:45:32.193Z,1.40
2023-05-07T00:48:01.566Z,1.53
2023-05-07T00:50:29.460Z,1.40
2023-05-07T00:52:56.381Z,1.60
2023-05-07T00:55:24.546Z,1.50
2023-05-07T00:57:52.466Z,1.80
2023-05-07T01:00:19.742Z,1.90
2023-05-07T01:02:47.914Z,1.50
2023-05-07T01:05:17.596Z,1.37
2023-05-07T01:07:45.527Z,1.23
2023-05-07T01:10:13.389Z,1.50
2023-05-07T01:12:41.524Z,1.33
2023-05-07T01:15:10.043Z,1.70
2023-05-07T01:17:37.827Z,1.37
2023-05-07T01:20:08.352Z,1.70
2023-05-07T01:22:37.701Z,1.67
2023-05-07T01:25:05.962Z,1.60
2023-05-07T01:27:34.564Z,1.80
2023-05-07T01:30:01.948Z,1.77
2023-05-07T01:32:50.704Z,1.87
2023-05-07T01:35:21.951Z,1.50
2023-05-07T01:37:49.409Z,1.97
2023-05-07T01:40:16.412Z,1.73
2023-05-07T01:42:44.444Z,1.83
2023-05-07T01:45:11.584Z,1.67
2023-05-07T01:47:39.717Z,1.60
2023-05-07T01:50:11.101Z,1.57
2023-05-07T01:52:39.579Z,1.90
2023-05-07T01:55:07.338Z,1.70
2023-05-07T01:57:34.329Z,1.70
2023-05-07T02:00:01.080Z,1.30
2023-05-07T02:02:27.993Z,1.50
2023-05-07T02:04:58.089Z,1.70
2023-05-07T02:07:25.551Z,1.60
2023-05-07T02:09:53.202Z,1.50
2023-05-07T02:12:19.968Z,1.60
2023-05-07T02:14:47.132Z,1.20
2023-05-07T02:17:14.496Z,1.57
2023-05-07T02:19:41.209Z,1.50
2023-05-07T02:22:08.748Z,1.57
2023-05-07T02:24:35.791Z,1.50
2023-05-07T02:27:03.456Z,1.77
2023-05-07T02:29:30.865Z,1.60
2023-05-07T02:31:57.693Z,1.77
2023-05-07T02:34:24.444Z,1.43
2023-05-07T02:36:51.250Z,1.50
2023-05-07T02:39:21.586Z,1.70
2023-05-07T02:41:48.344Z,1.60
2023-05-07T02:44:15.302Z,1.60
2023-05-07T02:46:42.294Z,1.70
2023-05-07T02:49:11.916Z,1.80
2023-05-07T02:51:38.758Z,1.80
2023-05-07T02:54:10.818Z,1.40
2023-05-07T02:56:37.830Z,1.50
2023-05-07T02:59:04.521Z,1.30
2023-05-07T03:01:34.507Z,1.20
2023-05-07T03:04:06.708Z,1.10
2023-05-07T03:06:33.451Z,1.60
2023-05-07T03:09:00.174Z,1.30
2023-05-07T03:11:26.995Z,1.40
2023-05-07T03:13:53.708Z,1.50
2023-05-07T03:16:21.856Z,1.37
2023-05-07T03:18:48.765Z,1.47
2023-05-07T03:21:15.648Z,1.77
2023-05-07T03:23:42.425Z,1.70
2023-05-07T03:26:09.203Z,1.90
2023-05-07T03:28:36.194Z,1.70
2023-05-07T03:31:06.140Z,1.40
2023-05-07T03:33:39.787Z,1.70
2023-05-07T03:36:06.701Z,1.53
2023-05-07T03:38:33.496Z,1.23
2023-05-07T03:41:00.485Z,1.47
2023-05-07T03:43:27.364Z,1.40
2023-05-07T03:46:01.545Z,1.77
2023-05-07T03:48:29.389Z,1.57
2023-05-07T03:51:01.464Z,1.50
2023-05-07T03:53:32.340Z,1.60
2023-05-07T03:55:59.103Z,1.57
2023-05-07T03:58:25.953Z,1.70
2023-05-07T04:00:54.706Z,1.70
2023-05-07T04:03:27.933Z,1.50
2023-05-07T04:05:57.983Z,1.33
2023-05-07T04:08:24.822Z,1.73
2023-05-07T04:10:58.032Z,1.67
2023-05-07T04:13:26.847Z,1.40
2023-05-07T04:15:56.009Z,1.50
2023-05-07T04:18:22.990Z,1.53
2023-05-07T04:20:50.909Z,1.40
2023-05-07T04:23:17.701Z,1.40
2023-05-07T04:25:44.733Z,1.70
2023-05-07T04:28:20.417Z,1.80
2023-05-07T04:30:47.385Z,1.60
2023-05-07T04:33:17.843Z,1.70
2023-05-07T04:35:45.223Z,1.43
2023-05-07T04:38:12.012Z,1.40
2023-05-07T04:40:39.879Z,1.37
2023-05-07T04:43:10.087Z,1.50
2023-05-07T04:45:43.817Z,1.13
2023-05-07T04:48:11.046Z,1.70
2023-05-07T04:50:40.594Z,1.33
2023-05-07T04:53:08.010Z,1.30
2023-05-07T04:55:35.014Z,1.67
2023-05-07T04:58:02.971Z,1.57
2023-05-07T05:00:32.644Z,1.80
2023-05-07T05:03:00.608Z,1.50
2023-05-07T05:05:28.033Z,1.47
2023-05-07T05:07:55.529Z,1.60
2023-05-07T05:10:24.615Z,1.27
2023-05-07T05:12:52.210Z,1.80
2023-05-07T05:15:20.308Z,2.03
2023-05-07T05:17:47.160Z,1.63
2023-05-07T05:20:13.925Z,1.63
2023-05-07T05:22:43.049Z,2.10
2023-05-07T05:25:10.737Z,1.80
2023-05-07T05:27:37.531Z,1.60
2023-05-07T05:30:06.639Z,1.50
2023-05-07T05:32:34.733Z,1.53
2023-05-07T05:35:01.987Z,2.10
2023-05-07T05:37:31.145Z,2.00
2023-05-07T05:39:58.907Z,2.00
2023-05-07T05:42:27.204Z,1.90
2023-05-07T05:44:55.362Z,1.50
2023-05-07T05:47:23.641Z,1.70
2023-05-07T05:49:51.620Z,1.60
2023-05-07T05:52:18.526Z,1.30
2023-05-07T05:54:46.352Z,1.30
2023-05-07T05:57:13.361Z,1.47
2023-05-07T05:59:40.206Z,1.10
2023-05-07T06:02:07.597Z,1.30
2023-05-07T06:04:34.644Z,1.70
2023-05-07T06:07:01.487Z,1.80
2023-05-07T06:09:28.294Z,1.60
2023-05-07T06:11:55.446Z,1.63
2023-05-07T06:14:22.311Z,1.53
2023-05-07T06:16:49.342Z,1.37
2023-05-07T06:19:19.020Z,1.60
2023-05-07T06:21:45.828Z,1.67
2023-05-07T06:24:12.692Z,1.97
2023-05-07T06:26:40.028Z,1.50
2023-05-07T06:29:07.292Z,2.07
2023-05-07T06:31:34.431Z,1.57
2023-05-07T06:34:08.584Z,1.67
2023-05-07T06:36:38.100Z,1.70
2023-05-07T06:39:13.914Z,1.30
2023-05-07T06:41:40.593Z,1.53
2023-05-07T06:44:16.146Z,1.57
2023-05-07T06:46:47.306Z,1.63
2023-05-07T06:49:14.873Z,1.30
2023-05-07T06:51:41.791Z,1.40
2023-05-07T06:54:08.518Z,1.10
2023-05-07T06:56:37.925Z,1.20
2023-05-07T06:59:07.541Z,1.47
2023-05-07T07:01:38.531Z,1.77
2023-05-07T07:04:06.030Z,1.40
2023-05-07T07:06:33.870Z,1.60
2023-05-07T07:09:02.470Z,1.60
2023-05-07T07:11:30.638Z,1.40
2023-05-07T07:13:57.686Z,1.57
2023-05-07T07:16:25.912Z,1.57
2023-05-07T07:18:52.776Z,1.37
2023-05-07T07:21:20.877Z,1.60
2023-05-07T07:23:47.770Z,1.40
2023-05-07T07:26:15.165Z,1.60
2023-05-07T07:28:48.507Z,1.73
2023-05-07T07:31:18.655Z,1.57
2023-05-07T07:33:45.817Z,1.40
2023-05-07T07:36:12.626Z,1.33
2023-05-07T07:38:39.939Z,1.20
2023-05-07T07:41:09.451Z,1.40
2023-05-07T07:43:36.923Z,1.03
2023-05-07T07:46:04.566Z,1.27
2023-05-07T07:48:32.162Z,1.37
2023-05-07T07:50:59.674Z,1.20
2023-05-07T07:53:26.754Z,1.20
2023-05-07T07:55:57.984Z,1.20
2023-05-07T07:58:28.024Z,1.67
2023-05-07T08:00:56.920Z,1.63
2023-05-07T08:03:24.708Z,1.10
2023-05-07T08:05:57.012Z,1.40
2023-05-07T08:08:24.208Z,1.13
2023-05-07T08:10:52.256Z,1.40
2023-05-07T08:13:26.326Z,1.27
2023-05-07T08:15:53.505Z,1.17
2023-05-07T08:18:20.732Z,1.17
2023-05-07T08:20:48.406Z,1.17
2023-05-07T08:23:19.053Z,1.20
2023-05-07T08:25:46.629Z,1.37
2023-05-07T08:28:14.169Z,1.47
2023-05-07T08:30:42.289Z,1.20
2023-05-07T08:33:10.538Z,1.40
2023-05-07T08:35:37.285Z,1.40
2023-05-07T08:38:06.005Z,1.27
2023-05-07T08:40:39.905Z,1.40
2023-05-07T08:43:16.096Z,1.17
2023-05-07T08:45:46.608Z,1.60
2023-05-07T08:48:18.301Z,1.40
2023-05-07T08:50:52.089Z,1.30
2023-05-07T08:53:19.315Z,1.30
2023-05-07T08:55:47.821Z,1.00
2023-05-07T08:58:14.925Z,1.20
2023-05-07T09:00:43.185Z,1.20
2023-05-07T09:03:13.449Z,1.20
2023-05-07T09:05:41.879Z,1.10
2023-05-07T09:08:09.414Z,1.20
2023-05-07T09:10:37.999Z,1.33
2023-05-07T09:13:05.611Z,1.33
2023-05-07T09:15:32.595Z,1.07
2023-05-07T09:18:02.616Z,1.10
2023-05-07T09:20:33.360Z,1.27
2023-05-07T09:23:01.060Z,1.30
2023-05-07T09:25:31.365Z,1.43
2023-05-07T09:28:01.251Z,1.00
2023-05-07T09:30:36.118Z,1.10
2023-05-07T09:33:05.237Z,0.93
2023-05-07T09:35:34.480Z,1.60
2023-05-07T09:38:07.311Z,1.30
2023-05-07T09:40:36.702Z,1.23
2023-05-07T09:43:13.641Z,1.50
2023-05-07T09:45:47.473Z,1.30
2023-05-07T09:48:19.278Z,1.20
2023-05-07T09:50:52.461Z,1.27
2023-05-07T09:53:23.566Z,1.10
2023-05-07T09:55:52.227Z,1.10
2023-05-07T09:58:21.150Z,1.10
2023-05-07T10:00:49.000Z,1.00
2023-05-07T10:03:17.064Z,1.20
2023-05-07T10:05:55.283Z,1.30
2023-05-07T10:08:22.824Z,1.10
2023-05-07T10:10:52.841Z,1.40
2023-05-07T10:13:23.946Z,1.30
2023-05-07T10:15:54.499Z,1.37
2023-05-07T10:18:30.643Z,1.30
2023-05-07T10:21:08.003Z,1.30
2023-05-07T10:23:35.712Z,1.60
2023-05-07T10:26:05.542Z,1.43
2023-05-07T10:28:38.212Z,1.30
2023-05-07T10:31:16.935Z,1.60
2023-05-07T10:33:49.670Z,1.27
2023-05-07T10:36:18.054Z,1.23
2023-05-07T10:38:44.962Z,1.30
2023-05-07T10:41:12.707Z,1.10
2023-05-07T10:43:44.499Z,1.20
2023-05-07T10:46:21.404Z,1.37
2023-05-07T10:49:04.365Z,1.37
2023-05-07T10:52:18.345Z,1.23
2023-05-07T10:55:20.923Z,1.03
2023-05-07T10:57:54.650Z,1.30
2023-05-07T11:03:02.937Z,1.30
2023-05-07T11:05:38.503Z,1.50
2023-05-07T11:08:23.371Z,1.40
2023-05-07T11:10:59.204Z,1.47
2023-05-07T11:13:48.748Z,1.40
2023-05-07T11:16:47.887Z,1.40
2023-05-07T11:20:02.629Z,1.40
2023-05-07T11:22:40.898Z,1.30
2023-05-07T11:25:30.811Z,1.87
2023-05-07T11:28:11.267Z,1.70
2023-05-07T11:30:44.148Z,1.70
2023-05-07T11:33:17.985Z,1.83
2023-05-07T11:35:46.438Z,1.20
2023-05-07T11:38:14.874Z,1.30
2023-05-07T11:40:57.340Z,1.33
2023-05-07T11:43:24.093Z,1.50
2023-05-07T11:45:51.383Z,1.50
2023-05-07T11:48:18.214Z,1.70
2023-05-07T11:50:52.800Z,1.67
2023-05-07T11:53:20.959Z,1.50
2023-05-07T11:55:47.882Z,1.60
2023-05-07T11:58:22.232Z,1.73
2023-05-07T12:00:55.615Z,1.77
2023-05-07T12:03:22.372Z,1.50
2023-05-07T12:05:49.490Z,1.43
2023-05-07T12:08:20.534Z,1.70
2023-05-07T12:10:49.277Z,1.60
2023-05-07T12:13:17.490Z,1.60
2023-05-07T12:15:44.920Z,1.90
2023-05-07T12:18:13.589Z,1.53
2023-05-07T12:20:40.798Z,1.83
2023-05-07T12:23:07.741Z,2.90
2023-05-07T12:25:39.005Z,1.90
2023-05-07T12:28:06.868Z,1.77
2023-05-07T12:30:38.498Z,2.10
2023-05-07T12:33:05.492Z,1.70
2023-05-07T12:35:37.115Z,1.70
2023-05-07T12:38:08.513Z,2.03
2023-05-07T12:40:40.720Z,1.90
2023-05-07T12:43:07.800Z,1.70
2023-05-07T12:45:42.309Z,2.20
2023-05-07T12:48:11.458Z,2.03
2023-05-07T12:50:38.351Z,1.70
2023-05-07T12:53:12.167Z,2.17
2023-05-07T12:55:46.916Z,1.67
2023-05-07T12:58:20.605Z,3.60
2023-05-07T13:00:49.981Z,2.00
2023-05-07T13:03:33.275Z,2.37
2023-05-07T13:06:11.223Z,2.53
2023-05-07T13:08:41.520Z,2.53
2023-05-07T13:11:09.780Z,2.27
2023-05-07T13:13:38.206Z,2.57
2023-05-07T13:16:06.148Z,2.27
2023-05-07T13:18:34.593Z,2.40
2023-05-07T13:21:01.998Z,2.30
2023-05-07T13:23:29.435Z,2.97
2023-05-07T13:25:56.917Z,2.83
2023-05-07T13:28:24.878Z,2.60
2023-05-07T13:30:52.864Z,2.70
2023-05-07T13:33:19.955Z,3.27
2023-05-07T13:35:46.829Z,3.03
2023-05-07T13:38:13.524Z,4.03
2023-05-07T13:40:40.253Z,3.10
2023-05-07T13:43:07.156Z,3.30
2023-05-07T13:45:33.950Z,3.70
2023-05-07T13:48:01.493Z,3.40
2023-05-07T13:50:30.059Z,3.63
2023-05-07T13:52:57.009Z,4.10
2023-05-07T13:55:25.351Z,3.97
2023-05-07T13:57:59.898Z,3.77
2023-05-07T14:00:28.501Z,2.77
2023-05-07T14:02:56.121Z,2.73
2023-05-07T14:05:27.643Z,2.60
2023-05-07T14:07:55.031Z,2.70
2023-05-07T14:10:21.786Z,2.93
2023-05-07T14:12:48.744Z,2.53
2023-05-07T14:15:17.066Z,2.47
2023-05-07T14:17:44.735Z,2.43
2023-05-07T14:20:13.305Z,2.90
2023-05-07T14:22:40.407Z,2.10
2023-05-07T14:25:07.854Z,1.80
2023-05-07T14:27:34.652Z,2.00
2023-05-07T14:30:01.585Z,1.90
2023-05-07T14:32:28.439Z,1.53
2023-05-07T14:34:55.361Z,2.30
2023-05-07T14:37:22.133Z,1.73
2023-05-07T14:39:50.798Z,2.10
2023-05-07T14:42:18.187Z,2.33
2023-05-07T14:44:46.602Z,2.30
2023-05-07T14:47:14.062Z,2.17
2023-05-07T14:49:41.700Z,2.13
2023-05-07T14:52:10.815Z,2.47
2023-05-07T14:54:39.104Z,2.23
2023-05-07T14:57:07.040Z,2.77
2023-05-07T14:59:34.049Z,2.27
2023-05-07T15:02:01.897Z,2.30
2023-05-07T15:04:29.842Z,2.03
2023-05-07T15:06:57.021Z,2.50
2023-05-07T15:09:23.710Z,2.80
2023-05-07T15:11:50.609Z,2.30
2023-05-07T15:14:17.716Z,2.60
2023-05-07T15:16:44.707Z,2.60
2023-05-07T15:19:12.173Z,2.90
2023-05-07T15:21:38.961Z,2.30
2023-05-07T15:24:06.311Z,3.00
2023-05-07T15:26:33.032Z,2.50
2023-05-07T15:28:59.735Z,5.57
2023-05-07T15:31:26.676Z,3.67
2023-05-07T15:33:53.459Z,3.73
2023-05-07T15:36:21.431Z,2.73
2023-05-07T15:38:48.217Z,2.40
2023-05-07T15:41:15.125Z,2.67
2023-05-07T15:43:47.888Z,2.47
2023-05-07T15:46:19.336Z,2.83
2023-05-07T15:48:46.265Z,2.50
2023-05-07T15:51:13.536Z,2.43
2023-05-07T15:53:41.086Z,2.40
2023-05-07T15:56:07.861Z,2.57
2023-05-07T15:58:35.747Z,2.40
2023-05-07T16:01:02.918Z,2.57
2023-05-07T16:03:30.210Z,2.40
2023-05-07T16:06:03.113Z,16.50
2023-05-07T16:08:29.861Z,2.90
2023-05-07T16:10:56.728Z,2.77
2023-05-07T16:13:24.900Z,2.67
2023-05-07T16:15:58.375Z,2.40
2023-05-07T16:18:25.148Z,2.77
2023-05-07T16:20:52.166Z,3.40
2023-05-07T16:23:19.287Z,3.10
2023-05-07T16:25:46.082Z,2.97
2023-05-07T16:28:14.565Z,2.43
2023-05-07T16:30:41.270Z,2.40
2023-05-07T16:33:08.306Z,2.97
2023-05-07T16:35:35.217Z,3.07
2023-05-07T16:38:02.021Z,2.90
2023-05-07T16:40:28.720Z,2.60
2023-05-07T16:42:55.728Z,2.60
2023-05-07T16:45:23.132Z,2.50
2023-05-07T16:47:50.085Z,2.80
2023-05-07T16:50:16.919Z,2.93
2023-05-07T16:52:43.623Z,2.50
2023-05-07T16:55:10.919Z,2.50
2023-05-07T16:57:38.167Z,2.40
2023-05-07T17:00:07.291Z,2.90
2023-05-07T17:02:35.629Z,2.97
2023-05-07T17:05:02.523Z,3.10
2023-05-07T17:07:29.320Z,3.00
2023-05-07T17:09:56.047Z,2.53
2023-05-07T17:12:22.979Z,2.57
2023-05-07T17:14:49.755Z,2.73
2023-05-07T17:17:16.478Z,2.50
2023-05-07T17:19:43.973Z,2.40
2023-05-07T17:22:10.663Z,2.50
2023-05-07T17:24:37.351Z,2.67
2023-05-07T17:27:04.153Z,2.80
2023-05-07T17:29:30.949Z,3.23
2023-05-07T17:31:57.743Z,3.50
2023-05-07T17:34:24.492Z,3.07
2023-05-07T17:36:51.293Z,3.07
2023-05-07T17:39:17.983Z,3.00
2023-05-07T17:41:44.617Z,3.20
2023-05-07T17:44:11.311Z,3.60
2023-05-07T17:46:37.962Z,3.70
2023-05-07T17:49:04.748Z,3.23
2023-05-07T17:51:39.027Z,3.13
2023-05-07T17:54:12.837Z,3.13
2023-05-07T17:56:40.588Z,3.23
2023-05-07T17:59:07.360Z,3.60
2023-05-07T18:01:34.433Z,3.73
2023-05-07T18:04:02.085Z,3.40
2023-05-07T18:06:29.017Z,3.73
2023-05-07T18:08:56.708Z,4.27
2023-05-07T18:11:24.354Z,4.40
2023-05-07T18:13:50.978Z,4.30
2023-05-07T18:16:19.260Z,3.50
2023-05-07T18:18:46.901Z,3.47
2023-05-07T18:21:18.786Z,3.80
2023-05-07T18:23:46.529Z,3.57
2023-05-07T18:26:14.068Z,4.50
2023-05-07T18:28:40.974Z,4.13
2023-05-07T18:31:07.690Z,4.30
2023-05-07T18:33:34.452Z,3.93
2023-05-07T18:36:01.113Z,4.57
2023-05-07T18:38:27.970Z,4.40
2023-05-07T18:41:05.150Z,4.50
2023-05-07T18:43:33.478Z,4.80
2023-05-07T18:46:00.299Z,5.17
2023-05-07T18:48:27.016Z,4.73
2023-05-07T18:50:53.748Z,4.10
2023-05-07T18:53:20.592Z,4.40
2023-05-07T18:55:53.411Z,4.90
2023-05-07T18:58:20.491Z,5.50
2023-05-07T19:00:51.197Z,4.80
2023-05-07T19:03:18.032Z,5.20
2023-05-07T19:05:45.669Z,5.10
2023-05-07T19:08:12.742Z,4.20
2023-05-07T19:10:39.451Z,4.07
2023-05-07T19:13:06.567Z,3.73
2023-05-07T19:15:33.649Z,4.30
2023-05-07T19:18:00.523Z,3.87
2023-05-07T19:20:27.369Z,3.90
2023-05-07T19:22:54.174Z,3.33
2023-05-07T19:25:20.898Z,3.10
2023-05-07T19:27:48.100Z,3.50
2023-05-07T19:30:15.381Z,3.70
2023-05-07T19:32:42.166Z,3.53
2023-05-07T19:35:09.601Z,3.80
2023-05-07T19:37:36.341Z,3.03
2023-05-07T19:40:05.202Z,2.97
2023-05-07T19:42:32.229Z,3.43
2023-05-07T19:44:58.972Z,3.17
2023-05-07T19:47:26.359Z,3.73
2023-05-07T19:49:53.146Z,3.23
2023-05-07T19:52:19.860Z,3.50
2023-05-07T19:54:46.605Z,5.93
2023-05-07T19:57:14.205Z,4.17
2023-05-07T19:59:41.044Z,3.40
2023-05-07T20:02:07.874Z,2.90
2023-05-07T20:04:37.989Z,2.40
2023-05-07T20:07:05.347Z,2.33
2023-05-07T20:09:32.257Z,2.00
2023-05-07T20:11:58.915Z,1.70
2023-05-07T20:14:26.837Z,1.77
2023-05-07T20:16:53.683Z,1.60
2023-05-07T20:19:20.468Z,1.90
2023-05-07T20:21:47.195Z,2.03
2023-05-07T20:24:13.865Z,2.20
2023-05-07T20:26:41.171Z,1.80
2023-05-07T20:29:07.916Z,1.93
2023-05-07T20:31:35.339Z,2.67
2023-05-07T20:34:02.746Z,2.00
2023-05-07T20:36:29.606Z,2.03
2023-05-07T20:38:56.413Z,2.00
2023-05-07T20:41:24.996Z,1.80
2023-05-07T20:43:52.151Z,2.17
2023-05-07T20:46:22.501Z,2.20
2023-05-07T20:48:49.685Z,2.43
2023-05-07T20:51:16.476Z,2.20
2023-05-07T20:53:47.990Z,2.33
2023-05-07T20:56:15.405Z,1.90
2023-05-07T20:58:42.173Z,1.90
2023-05-07T21:01:08.899Z,1.70
2023-05-07T21:03:35.654Z,1.97
2023-05-07T21:06:03.013Z,1.50
2023-05-07T21:08:30.202Z,1.73
2023-05-07T21:10:57.186Z,1.50
2023-05-07T21:13:24.177Z,1.70
2023-05-07T21:15:51.432Z,1.73
2023-05-07T21:18:19.424Z,1.70
2023-05-07T21:20:46.084Z,2.07
2023-05-07T21:23:12.877Z,1.87
2023-05-07T21:25:41.268Z,2.07
2023-05-07T21:28:08.818Z,2.10
2023-05-07T21:30:36.672Z,2.37
2023-05-07T21:33:05.382Z,2.00
2023-05-07T21:35:33.693Z,2.10
2023-05-07T21:38:02.441Z,2.10
2023-05-07T21:40:29.615Z,2.40
2023-05-07T21:42:56.336Z,1.97
2023-05-07T21:45:22.998Z,1.90
2023-05-07T21:47:49.716Z,1.83
2023-05-07T21:50:16.858Z,1.80
2023-05-07T21:52:43.718Z,2.00
2023-05-07T21:55:10.975Z,1.67
2023-05-07T21:57:41.791Z,2.03
2023-05-07T22:00:09.215Z,1.60
2023-05-07T22:02:36.670Z,1.80
2023-05-07T22:05:03.550Z,1.70
2023-05-07T22:07:30.220Z,1.80
2023-05-07T22:09:56.995Z,1.90
2023-05-07T22:12:23.688Z,1.73
2023-05-07T22:14:50.457Z,1.83
2023-05-07T22:17:17.111Z,1.93
2023-05-07T22:19:43.786Z,1.93
2023-05-07T22:22:10.529Z,1.80
2023-05-07T22:24:37.292Z,2.00
2023-05-07T22:27:04.059Z,1.70
2023-05-07T22:29:30.824Z,2.00
2023-05-07T22:31:57.695Z,1.90
2023-05-07T22:34:24.419Z,1.77
2023-05-07T22:36:51.263Z,1.77
2023-05-07T22:39:17.996Z,1.90
2023-05-07T22:41:44.760Z,1.93
2023-05-07T22:44:11.417Z,1.73
2023-05-07T22:46:38.232Z,1.70
2023-05-07T22:49:05.238Z,1.80
2023-05-07T22:51:31.949Z,1.90
2023-05-07T22:53:58.847Z,1.93
2023-05-07T22:56:25.599Z,1.70
2023-05-07T22:58:52.250Z,1.97
2023-05-07T23:01:19.440Z,2.00
2023-05-07T23:03:46.197Z,2.30
2023-05-07T23:06:13.476Z,2.20
2023-05-07T23:08:40.192Z,2.00
2023-05-07T23:11:07.466Z,2.07
2023-05-07T23:13:34.206Z,1.90
2023-05-07T23:16:00.946Z,2.10
2023-05-07T23:18:28.036Z,2.07
2023-05-07T23:20:54.962Z,2.07
2023-05-07T23:23:22.003Z,2.23
2023-05-07T23:25:51.810Z,2.23
2023-05-07T23:28:18.641Z,2.40
2023-05-07T23:30:45.757Z,1.97
2023-05-07T23:33:12.540Z,2.47
2023-05-07T23:35:39.585Z,2.53
2023-05-07T23:38:06.328Z,2.50
2023-05-07T23:40:33.061Z,2.30
2023-05-07T23:42:59.794Z,2.37
2023-05-07T23:45:26.483Z,1.77
2023-05-07T23:47:53.344Z,2.20
2023-05-07T23:50:20.216Z,2.07
2023-05-07T23:52:46.960Z,2.30
2023-05-07T23:55:16.357Z,2.80
2023-05-07T23:57:43.053Z,3.10
